createdAt,value
2023-03-27T00:01:49.510Z,99.99
2023-03-27T00:03:50.186Z,99.99
2023-03-27T00:05:50.523Z,99.99
2023-03-27T00:07:50.801Z,99.99
2023-03-27T00:09:51.132Z,99.99
2023-03-27T00:11:51.406Z,99.99
2023-03-27T00:13:51.688Z,99.99
2023-03-27T00:15:51.982Z,99.99
2023-03-27T00:17:52.334Z,99.99
2023-03-27T00:19:52.601Z,99.99
2023-03-27T00:21:52.916Z,99.99
2023-03-27T00:23:53.186Z,99.99
2023-03-27T00:25:53.516Z,99.99
2023-03-27T00:27:53.825Z,99.99
2023-03-27T00:29:54.078Z,99.99
2023-03-27T00:31:54.405Z,99.99
2023-03-27T00:33:54.698Z,99.29
2023-03-27T00:35:55.010Z,98.97
2023-03-27T00:37:56.046Z,99.29
2023-03-27T00:39:56.341Z,98.50
2023-03-27T00:41:56.623Z,97.57
2023-03-27T00:43:56.903Z,97.36
2023-03-27T00:45:57.193Z,96.64
2023-03-27T00:47:57.543Z,97.16
2023-03-27T00:49:57.849Z,97.67
2023-03-27T00:51:58.133Z,97.41
2023-03-27T00:53:58.467Z,97.83
2023-03-27T00:55:58.783Z,97.83
2023-03-27T00:57:59.059Z,97.62
2023-03-27T00:59:59.348Z,98.03
2023-03-27T01:01:59.668Z,98.13
2023-03-27T01:03:59.949Z,98.44
2023-03-27T01:06:00.262Z,98.75
2023-03-27T01:08:01.793Z,98.96
2023-03-27T01:10:02.267Z,99.38
2023-03-27T01:12:02.597Z,99.48
2023-03-27T01:14:02.914Z,99.58
2023-03-27T01:16:03.237Z,98.96
2023-03-27T01:18:03.604Z,97.41
2023-03-27T01:20:03.923Z,96.69
2023-03-27T01:22:04.227Z,95.96
2023-03-27T01:24:04.497Z,96.17
2023-03-27T01:26:04.828Z,94.31
2023-03-27T01:28:05.146Z,94.31
2023-03-27T01:30:05.428Z,95.24
2023-03-27T01:32:05.761Z,94.56
2023-03-27T01:34:06.010Z,94.04
2023-03-27T01:36:07.012Z,94.35
2023-03-27T01:38:07.287Z,95.18
2023-03-27T01:40:07.598Z,95.70
2023-03-27T01:42:07.929Z,95.07
2023-03-27T01:44:08.166Z,94.35
2023-03-27T01:46:08.509Z,94.97
2023-03-27T01:48:08.795Z,95.59
2023-03-27T01:50:09.092Z,94.14
2023-03-27T01:52:09.379Z,91.97
2023-03-27T01:54:09.689Z,91.24
2023-03-27T01:56:09.964Z,87.62
2023-03-27T01:58:10.248Z,87.82
2023-03-27T02:00:17.917Z,86.21
2023-03-27T02:02:15.746Z,88.59
2023-03-27T02:04:16.040Z,90.04
2023-03-27T02:06:16.352Z,89.46
2023-03-27T02:08:16.653Z,89.56
2023-03-27T02:10:16.940Z,90.97
2023-03-27T02:12:17.266Z,88.94
2023-03-27T02:14:17.541Z,86.62
2023-03-27T02:16:17.865Z,85.79
2023-03-27T02:18:18.149Z,85.73
2023-03-27T02:20:18.486Z,84.48
2023-03-27T02:22:18.754Z,83.45
2023-03-27T02:24:19.113Z,84.11
2023-03-27T02:26:19.371Z,85.77
2023-03-27T02:28:19.689Z,85.46
2023-03-27T02:30:19.968Z,84.63
2023-03-27T02:32:20.349Z,83.38
2023-03-27T02:34:20.647Z,84.11
2023-03-27T02:36:20.978Z,83.32
2023-03-27T02:38:21.268Z,83.94
2023-03-27T02:40:21.578Z,85.29
2023-03-27T02:42:21.888Z,84.08
2023-03-27T02:44:22.199Z,82.84
2023-03-27T02:46:22.533Z,83.98
2023-03-27T02:48:22.780Z,83.46
2023-03-27T02:50:23.116Z,84.39
2023-03-27T02:52:23.450Z,83.39
2023-03-27T02:54:23.738Z,83.98
2023-03-27T02:56:24.051Z,84.53
2023-03-27T02:58:24.331Z,83.33
2023-03-27T03:00:24.663Z,82.91
2023-03-27T03:02:25.089Z,82.08
2023-03-27T03:04:25.437Z,82.53
2023-03-27T03:06:25.752Z,83.68
2023-03-27T03:08:26.035Z,83.05
2023-03-27T03:10:26.326Z,83.92
2023-03-27T03:12:26.642Z,82.99
2023-03-27T03:14:26.972Z,83.40
2023-03-27T03:16:27.280Z,82.68
2023-03-27T03:18:27.649Z,82.78
2023-03-27T03:20:27.959Z,82.15
2023-03-27T03:22:28.261Z,82.99
2023-03-27T03:24:28.580Z,81.74
2023-03-27T03:26:28.867Z,81.95
2023-03-27T03:28:29.225Z,82.05
2023-03-27T03:30:29.537Z,80.60
2023-03-27T03:32:29.884Z,82.26
2023-03-27T03:34:30.190Z,82.61
2023-03-27T03:36:30.505Z,81.67
2023-03-27T03:38:37.661Z,82.61
2023-03-27T03:40:36.021Z,82.61
2023-03-27T03:42:36.295Z,81.67
2023-03-27T03:44:36.582Z,81.46
2023-03-27T03:46:36.989Z,81.67
2023-03-27T03:48:37.296Z,81.46
2023-03-27T03:50:37.574Z,82.30
2023-03-27T03:52:37.902Z,82.20
2023-03-27T03:54:38.218Z,81.77
2023-03-27T03:56:38.561Z,81.15
2023-03-27T03:58:38.852Z,82.61
2023-03-27T04:00:39.106Z,81.46
2023-03-27T04:02:39.473Z,81.77
2023-03-27T04:04:39.814Z,81.05
2023-03-27T04:06:40.115Z,81.67
2023-03-27T04:08:40.459Z,81.98
2023-03-27T04:10:40.705Z,80.74
2023-03-27T04:12:41.048Z,81.67
2023-03-27T04:14:41.337Z,81.88
2023-03-27T04:16:41.658Z,82.23
2023-03-27T04:18:42.030Z,81.92
2023-03-27T04:20:42.358Z,80.77
2023-03-27T04:22:42.637Z,82.03
2023-03-27T04:24:42.914Z,81.92
2023-03-27T04:26:43.237Z,82.44
2023-03-27T04:28:43.605Z,81.50
2023-03-27T04:30:43.894Z,82.34
2023-03-27T04:32:44.216Z,81.81
2023-03-27T04:34:44.557Z,82.13
2023-03-27T04:36:44.832Z,82.23
2023-03-27T04:38:45.140Z,81.96
2023-03-27T04:40:45.480Z,82.89
2023-03-27T04:42:45.819Z,82.68
2023-03-27T04:44:46.132Z,83.27
2023-03-27T04:46:46.444Z,83.10
2023-03-27T04:48:46.835Z,83.00
2023-03-27T04:50:47.077Z,83.00
2023-03-27T04:52:49.039Z,82.79
2023-03-27T04:54:50.661Z,82.27
2023-03-27T04:56:51.059Z,82.58
2023-03-27T04:58:51.439Z,83.20
2023-03-27T05:00:51.700Z,82.79
2023-03-27T05:02:52.122Z,84.08
2023-03-27T05:04:52.558Z,84.18
2023-03-27T05:06:52.854Z,83.76
2023-03-27T05:08:55.624Z,82.72
2023-03-27T05:10:56.618Z,83.25
2023-03-27T05:12:58.412Z,82.93
2023-03-27T05:15:50.864Z,82.27
2023-03-27T05:18:34.136Z,81.75
